createdAt,value
2019-02-21T00:09:10.792Z,100044.76
2019-02-21T00:19:11.434Z,100037.46
2019-02-21T00:29:12.384Z,100038.58
2019-02-21T00:39:13.362Z,100055.14
2019-02-21T00:49:14.003Z,100052.38
2019-02-21T00:59:14.694Z,100049.62
2019-02-21T01:09:15.614Z,100058.45
2019-02-21T01:19:16.482Z,100064.34
2019-02-21T01:29:17.398Z,100067.13
2019-02-21T01:39:18.386Z,100067.92
2019-02-21T01:49:19.017Z,100077.03
2019-02-21T01:59:20.986Z,100074.11
2019-02-21T02:09:21.877Z,100068.01
2019-02-21T02:19:22.544Z,100068.80
2019-02-21T02:29:23.210Z,100079.84
2019-02-21T02:39:23.873Z,100093.09
2019-02-21T02:49:24.554Z,100091.59
2019-02-21T02:59:25.470Z,100076.69
2019-02-21T03:09:26.383Z,100092.98
2019-02-21T03:19:27.285Z,100075.98
2019-02-21T03:29:28.007Z,100086.12
2019-02-21T03:39:28.765Z,100085.58
2019-02-21T03:49:29.498Z,100087.58
2019-02-21T03:59:30.432Z,100078.64
2019-02-21T04:09:31.389Z,100081.38
2019-02-21T04:19:32.056Z,100073.70
2019-02-21T04:29:33.157Z,100074.98
2019-02-21T04:39:33.827Z,100079.94
2019-02-21T04:49:34.535Z,100075.72
2019-02-21T04:59:45.327Z,100088.95
2019-02-21T05:09:57.314Z,100083.50
2019-02-21T05:19:52.192Z,100094.15
2019-02-21T05:29:53.952Z,100088.81
2019-02-21T05:39:58.719Z,100088.02
2019-02-21T05:49:59.923Z,100094.15
2019-02-21T06:00:03.387Z,100087.50
2019-02-21T06:10:04.037Z,100090.87
2019-02-21T06:20:05.217Z,100089.09
2019-02-21T06:30:06.619Z,100087.00
2019-02-21T06:40:07.685Z,100106.41
2019-02-21T06:50:08.673Z,100098.19
2019-02-21T07:00:15.273Z,100102.77
2019-02-21T07:10:15.962Z,100094.56
2019-02-21T07:20:16.936Z,100092.53
2019-02-21T07:30:20.347Z,100131.37
2019-02-21T07:40:20.583Z,100157.02
2019-02-21T07:50:23.208Z,100167.44
2019-02-21T08:00:24.284Z,100166.72
2019-02-21T08:10:33.523Z,100173.34
2019-02-21T08:20:33.927Z,100170.06
2019-02-21T08:30:33.106Z,100185.91
2019-02-21T08:40:33.931Z,100186.72
2019-02-21T08:50:34.682Z,100181.50
2019-02-21T09:00:39.286Z,100197.45
2019-02-21T09:10:40.089Z,100195.17
2019-02-21T09:20:40.736Z,100212.98
2019-02-21T09:30:41.902Z,100228.91
2019-02-21T09:40:45.804Z,100228.50
2019-02-21T09:50:46.711Z,100215.14
2019-02-21T10:00:47.773Z,100213.84
2019-02-21T10:10:51.676Z,100219.89
2019-02-21T10:20:52.408Z,100206.95
2019-02-21T10:30:57.121Z,100206.24
2019-02-21T10:41:04.847Z,100223.13
2019-02-21T10:51:05.487Z,100236.62
2019-02-21T11:01:10.681Z,100232.22
2019-02-21T11:11:11.324Z,100214.24
2019-02-21T11:21:13.083Z,100217.96
2019-02-21T11:31:16.130Z,100227.30
2019-02-21T11:41:16.800Z,100220.61
2019-02-21T11:51:18.807Z,100199.20
2019-02-21T12:01:19.480Z,100164.81
2019-02-21T12:11:20.208Z,100156.63
2019-02-21T12:21:20.845Z,100150.61
2019-02-21T12:31:21.544Z,100130.19
2019-02-21T12:41:22.470Z,100136.55
2019-02-21T12:51:23.450Z,100137.51
2019-02-21T13:01:24.416Z,100132.20
2019-02-21T13:11:26.090Z,100133.39
2019-02-21T13:21:29.077Z,100130.44
2019-02-21T13:31:29.785Z,100122.80
2019-02-21T13:41:30.718Z,100127.09
2019-02-21T13:51:33.706Z,100120.92
2019-02-21T14:01:34.722Z,100105.31
2019-02-21T14:11:35.362Z,100101.22
2019-02-21T14:21:43.740Z,100097.50
2019-02-21T14:31:44.651Z,100095.55
2019-02-21T14:41:45.489Z,100109.98
2019-02-21T14:51:46.537Z,100108.66
2019-02-21T15:01:47.419Z,100100.93
2019-02-21T15:11:48.456Z,100107.15
2019-02-21T15:21:53.136Z,100119.05
2019-02-21T15:31:53.760Z,100126.12
2019-02-21T15:41:54.533Z,100123.36
2019-02-21T15:51:55.411Z,100129.09
2019-02-21T16:01:56.064Z,100131.80
2019-02-21T16:11:56.851Z,100139.48
2019-02-21T16:21:57.889Z,100153.92
2019-02-21T16:31:58.595Z,100155.50
2019-02-21T16:41:59.549Z,100143.09
2019-02-21T16:52:04.999Z,100151.71
2019-02-21T17:02:06.728Z,100179.50
2019-02-21T17:12:07.400Z,100165.98
2019-02-21T17:22:08.089Z,100187.82
2019-02-21T17:32:08.759Z,100207.99
2019-02-21T17:42:09.473Z,100216.10
2019-02-21T17:52:10.156Z,100216.03
2019-02-21T18:02:16.590Z,100219.59
2019-02-21T18:12:22.140Z,100225.92
2019-02-21T18:22:30.722Z,100228.08
2019-02-21T18:32:35.287Z,100232.09
2019-02-21T18:42:35.910Z,100243.49
2019-02-21T18:52:36.579Z,100251.52
2019-02-21T19:02:37.712Z,100255.18
2019-02-21T19:12:43.052Z,100264.09
2019-02-21T19:22:45.774Z,100264.37
2019-02-21T19:32:47.626Z,100269.77
2019-02-21T19:42:48.568Z,100274.00
2019-02-21T19:52:49.583Z,100284.56
2019-02-21T20:02:50.311Z,100296.44
2019-02-21T20:12:51.036Z,100292.73
2019-02-21T20:22:51.735Z,100317.14
2019-02-21T20:32:54.477Z,100321.11
2019-02-21T20:42:55.105Z,100321.92
2019-02-21T20:52:55.735Z,100329.08
2019-02-21T21:02:56.401Z,100348.15
2019-02-21T21:12:57.333Z,100363.55
2019-02-21T21:22:59.016Z,100377.04
2019-02-21T21:33:05.727Z,100389.24
2019-02-21T21:43:06.429Z,100401.59
2019-02-21T21:53:08.404Z,100407.23
2019-02-21T22:03:09.111Z,100407.67
2019-02-21T22:13:09.786Z,100412.30
2019-02-21T22:23:18.514Z,100422.34
2019-02-21T22:33:19.146Z,100431.68
2019-02-21T22:43:19.779Z,100439.97
2019-02-21T22:53:23.481Z,100418.30
2019-02-21T23:03:28.223Z,100414.67
2019-02-21T23:13:28.854Z,100421.69
2019-02-21T23:23:35.567Z,100422.55
2019-02-21T23:33:42.356Z,100430.72
2019-02-21T23:43:43.260Z,100425.38
2019-02-21T23:53:43.968Z,100418.35
